sensor_id;sensor_type;location;lat;lon;timestamp;P1;durP1;ratioP1;P2;durP2;ratioP2
31450;SDS011;18070;52.474;13.304;2023-11-21T00:01:53;6.32;;;5.78;;
31450;SDS011;18070;52.474;13.304;2023-11-21T00:04:19;7.10;;;6.32;;
31450;SDS011;18070;52.474;13.304;2023-11-21T00:06:45;7.10;;;6.20;;
31450;SDS011;18070;52.474;13.304;2023-11-21T00:09:11;7.38;;;6.30;;
31450;SDS011;18070;52.474;13.304;2023-11-21T00:11:38;10.68;;;7.30;;
31450;SDS011;18070;52.474;13.304;2023-11-21T00:14:04;10.25;;;8.93;;
31450;SDS011;18070;52.474;13.304;2023-11-21T00:16:29;11.65;;;10.07;;
31450;SDS011;18070;52.474;13.304;2023-11-21T00:18:55;13.35;;;10.52;;
31450;SDS011;18070;52.474;13.304;2023-11-21T00:21:21;14.77;;;11.60;;
31450;SDS011;18070;52.474;13.304;2023-11-21T00:23:46;18.05;;;11.57;;
31450;SDS011;18070;52.474;13.304;2023-11-21T00:26:12;17.77;;;12.13;;
31450;SDS011;18070;52.474;13.304;2023-11-21T00:28:37;17.30;;;12.70;;
31450;SDS011;18070;52.474;13.304;2023-11-21T00:31:03;23.40;;;14.80;;
31450;SDS011;18070;52.474;13.304;2023-11-21T00:33:29;20.92;;;13.73;;
31450;SDS011;18070;52.474;13.304;2023-11-21T00:35:54;22.52;;;14.40;;
31450;SDS011;18070;52.474;13.304;2023-11-21T00:38:20;27.40;;;15.20;;
31450;SDS011;18070;52.474;13.304;2023-11-21T00:40:46;25.77;;;14.93;;
31450;SDS011;18070;52.474;13.304;2023-11-21T00:43:12;26.02;;;16.17;;
31450;SDS011;18070;52.474;13.304;2023-11-21T00:45:37;31.77;;;16.05;;
31450;SDS011;18070;52.474;13.304;2023-11-21T00:48:05;29.13;;;16.88;;
31450;SDS011;18070;52.474;13.304;2023-11-21T00:50:31;32.67;;;17.58;;
31450;SDS011;18070;52.474;13.304;2023-11-21T00:52:56;37.55;;;20.08;;
31450;SDS011;18070;52.474;13.304;2023-11-21T00:55:22;38.50;;;18.58;;
31450;SDS011;18070;52.474;13.304;2023-11-21T00:57:48;42.20;;;19.60;;
31450;SDS011;18070;52.474;13.304;2023-11-21T01:00:14;40.50;;;19.52;;
31450;SDS011;18070;52.474;13.304;2023-11-21T01:02:43;49.97;;;21.80;;
31450;SDS011;18070;52.474;13.304;2023-11-21T01:05:10;43.60;;;20.27;;
31450;SDS011;18070;52.474;13.304;2023-11-21T01:07:35;51.20;;;23.42;;
31450;SDS011;18070;52.474;13.304;2023-11-21T01:10:02;54.42;;;22.80;;
31450;SDS011;18070;52.474;13.304;2023-11-21T01:12:30;50.55;;;20.77;;
31450;SDS011;18070;52.474;13.304;2023-11-21T01:14:56;53.35;;;23.30;;
31450;SDS011;18070;52.474;13.304;2023-11-21T01:17:25;54.30;;;24.05;;
31450;SDS011;18070;52.474;13.304;2023-11-21T01:19:51;53.55;;;23.80;;
31450;SDS011;18070;52.474;13.304;2023-11-21T01:22:16;54.55;;;24.83;;
31450;SDS011;18070;52.474;13.304;2023-11-21T01:24:47;58.75;;;24.58;;
31450;SDS011;18070;52.474;13.304;2023-11-21T01:27:12;59.17;;;25.73;;
31450;SDS011;18070;52.474;13.304;2023-11-21T01:29:38;63.10;;;26.45;;
31450;SDS011;18070;52.474;13.304;2023-11-21T01:32:04;67.95;;;26.67;;
31450;SDS011;18070;52.474;13.304;2023-11-21T01:34:32;62.90;;;26.15;;
31450;SDS011;18070;52.474;13.304;2023-11-21T01:36:58;66.50;;;27.30;;
31450;SDS011;18070;52.474;13.304;2023-11-21T01:39:24;79.22;;;26.92;;
31450;SDS011;18070;52.474;13.304;2023-11-21T01:41:50;62.40;;;26.13;;
31450;SDS011;18070;52.474;13.304;2023-11-21T01:44:17;63.00;;;24.27;;
31450;SDS011;18070;52.474;13.304;2023-11-21T01:46:44;66.90;;;25.58;;
31450;SDS011;18070;52.474;13.304;2023-11-21T01:49:11;64.57;;;25.95;;
31450;SDS011;18070;52.474;13.304;2023-11-21T01:51:38;63.28;;;25.65;;
31450;SDS011;18070;52.474;13.304;2023-11-21T01:54:05;63.13;;;25.30;;
31450;SDS011;18070;52.474;13.304;2023-11-21T01:56:31;62.72;;;25.30;;
31450;SDS011;18070;52.474;13.304;2023-11-21T01:58:57;72.43;;;25.38;;
31450;SDS011;18070;52.474;13.304;2023-11-21T02:01:23;65.68;;;25.35;;
31450;SDS011;18070;52.474;13.304;2023-11-21T02:03:49;62.22;;;22.50;;
31450;SDS011;18070;52.474;13.304;2023-11-21T02:06:14;59.33;;;22.35;;
31450;SDS011;18070;52.474;13.304;2023-11-21T02:08:40;61.33;;;22.15;;
31450;SDS011;18070;52.474;13.304;2023-11-21T02:11:09;64.15;;;21.85;;
31450;SDS011;18070;52.474;13.304;2023-11-21T02:13:37;62.80;;;22.65;;
31450;SDS011;18070;52.474;13.304;2023-11-21T02:16:08;55.50;;;21.10;;
31450;SDS011;18070;52.474;13.304;2023-11-21T02:18:34;49.50;;;20.13;;
31450;SDS011;18070;52.474;13.304;2023-11-21T02:21:01;50.40;;;19.70;;
31450;SDS011;18070;52.474;13.304;2023-11-21T02:23:29;56.15;;;19.13;;
31450;SDS011;18070;52.474;13.304;2023-11-21T02:25:55;45.35;;;17.38;;
31450;SDS011;18070;52.474;13.304;2023-11-21T02:28:21;44.63;;;17.85;;
31450;SDS011;18070;52.474;13.304;2023-11-21T02:30:51;42.10;;;18.02;;
31450;SDS011;18070;52.474;13.304;2023-11-21T02:33:20;38.42;;;17.52;;
31450;SDS011;18070;52.474;13.304;2023-11-21T02:35:46;30.23;;;14.45;;
31450;SDS011;18070;52.474;13.304;2023-11-21T02:38:12;35.58;;;13.93;;
31450;SDS011;18070;52.474;13.304;2023-11-21T02:40:38;33.10;;;13.82;;
31450;SDS011;18070;52.474;13.304;2023-11-21T02:43:04;26.50;;;13.38;;
31450;SDS011;18070;52.474;13.304;2023-11-21T02:45:30;24.00;;;12.63;;
31450;SDS011;18070;52.474;13.304;2023-11-21T02:47:56;26.92;;;13.15;;
31450;SDS011;18070;52.474;13.304;2023-11-21T02:50:23;22.63;;;10.40;;
31450;SDS011;18070;52.474;13.304;2023-11-21T02:52:49;17.50;;;9.32;;
31450;SDS011;18070;52.474;13.304;2023-11-21T02:55:14;17.17;;;10.00;;
31450;SDS011;18070;52.474;13.304;2023-11-21T02:57:40;19.42;;;10.75;;
31450;SDS011;18070;52.474;13.304;2023-11-21T03:00:06;16.35;;;10.40;;
31450;SDS011;18070;52.474;13.304;2023-11-21T03:02:32;17.55;;;11.05;;
31450;SDS011;18070;52.474;13.304;2023-11-21T03:05:01;23.52;;;12.77;;
31450;SDS011;18070;52.474;13.304;2023-11-21T03:07:27;23.80;;;13.15;;
31450;SDS011;18070;52.474;13.304;2023-11-21T03:09:53;27.85;;;13.40;;
31450;SDS011;18070;52.474;13.304;2023-11-21T03:12:18;25.48;;;12.38;;
31450;SDS011;18070;52.474;13.304;2023-11-21T03:14:44;21.08;;;12.23;;
31450;SDS011;18070;52.474;13.304;2023-11-21T03:17:10;26.35;;;14.60;;
31450;SDS011;18070;52.474;13.304;2023-11-21T03:19:36;19.88;;;12.13;;
31450;SDS011;18070;52.474;13.304;2023-11-21T03:22:02;21.67;;;13.52;;
31450;SDS011;18070;52.474;13.304;2023-11-21T03:24:29;20.27;;;12.20;;
31450;SDS011;18070;52.474;13.304;2023-11-21T03:26:54;17.52;;;11.57;;
31450;SDS011;18070;52.474;13.304;2023-11-21T03:29:20;20.60;;;12.25;;
31450;SDS011;18070;52.474;13.304;2023-11-21T03:31:46;19.40;;;11.93;;
31450;SDS011;18070;52.474;13.304;2023-11-21T03:34:16;16.95;;;11.82;;
31450;SDS011;18070;52.474;13.304;2023-11-21T03:36:48;19.17;;;11.07;;
31450;SDS011;18070;52.474;13.304;2023-11-21T03:39:14;17.10;;;11.65;;
31450;SDS011;18070;52.474;13.304;2023-11-21T03:41:39;19.52;;;12.50;;
31450;SDS011;18070;52.474;13.304;2023-11-21T03:44:05;19.38;;;12.63;;
31450;SDS011;18070;52.474;13.304;2023-11-21T03:46:31;20.30;;;14.07;;
31450;SDS011;18070;52.474;13.304;2023-11-21T03:48:56;18.08;;;12.70;;
31450;SDS011;18070;52.474;13.304;2023-11-21T03:51:22;17.48;;;12.07;;
31450;SDS011;18070;52.474;13.304;2023-11-21T03:53:47;21.15;;;12.43;;
31450;SDS011;18070;52.474;13.304;2023-11-21T03:56:13;18.80;;;12.50;;
31450;SDS011;18070;52.474;13.304;2023-11-21T03:58:39;17.20;;;11.82;;
31450;SDS011;18070;52.474;13.304;2023-11-21T04:01:05;20.13;;;12.20;;
31450;SDS011;18070;52.474;13.304;2023-11-21T04:03:31;20.70;;;13.50;;
31450;SDS011;18070;52.474;13.304;2023-11-21T04:05:56;20.92;;;12.77;;
31450;SDS011;18070;52.474;13.304;2023-11-21T04:08:22;17.77;;;12.48;;
31450;SDS011;18070;52.474;13.304;2023-11-21T04:10:47;19.45;;;13.52;;
31450;SDS011;18070;52.474;13.304;2023-11-21T04:13:13;21.85;;;13.02;;
31450;SDS011;18070;52.474;13.304;2023-11-21T04:15:39;20.77;;;12.30;;
31450;SDS011;18070;52.474;13.304;2023-11-21T04:18:05;21.33;;;12.85;;
31450;SDS011;18070;52.474;13.304;2023-11-21T04:20:30;24.23;;;14.30;;
31450;SDS011;18070;52.474;13.304;2023-11-21T04:22:57;21.95;;;12.48;;
31450;SDS011;18070;52.474;13.304;2023-11-21T04:25:22;19.80;;;13.50;;
31450;SDS011;18070;52.474;13.304;2023-11-21T04:27:48;24.48;;;13.05;;
31450;SDS011;18070;52.474;13.304;2023-11-21T04:30:14;19.17;;;12.60;;
31450;SDS011;18070;52.474;13.304;2023-11-21T04:32:40;20.60;;;12.85;;
31450;SDS011;18070;52.474;13.304;2023-11-21T04:35:07;22.27;;;14.15;;
31450;SDS011;18070;52.474;13.304;2023-11-21T04:37:33;19.08;;;12.75;;
31450;SDS011;18070;52.474;13.304;2023-11-21T04:39:59;19.17;;;13.50;;
31450;SDS011;18070;52.474;13.304;2023-11-21T04:42:25;21.38;;;13.20;;
31450;SDS011;18070;52.474;13.304;2023-11-21T04:44:50;19.63;;;12.85;;
31450;SDS011;18070;52.474;13.304;2023-11-21T04:47:17;22.45;;;14.32;;
31450;SDS011;18070;52.474;13.304;2023-11-21T04:49:45;21.40;;;14.95;;
31450;SDS011;18070;52.474;13.304;2023-11-21T04:52:14;22.58;;;13.90;;
31450;SDS011;18070;52.474;13.304;2023-11-21T04:54:40;21.50;;;13.93;;
31450;SDS011;18070;52.474;13.304;2023-11-21T04:57:05;21.85;;;13.77;;
31450;SDS011;18070;52.474;13.304;2023-11-21T04:59:32;24.75;;;14.00;;
31450;SDS011;18070;52.474;13.304;2023-11-21T05:01:59;22.20;;;14.02;;
31450;SDS011;18070;52.474;13.304;2023-11-21T05:04:25;20.58;;;13.43;;
31450;SDS011;18070;52.474;13.304;2023-11-21T05:06:51;18.40;;;12.32;;
31450;SDS011;18070;52.474;13.304;2023-11-21T05:09:16;18.15;;;12.73;;
31450;SDS011;18070;52.474;13.304;2023-11-21T05:11:42;20.05;;;13.05;;
31450;SDS011;18070;52.474;13.304;2023-11-21T05:14:08;20.73;;;12.05;;
31450;SDS011;18070;52.474;13.304;2023-11-21T05:16:34;14.07;;;10.27;;
31450;SDS011;18070;52.474;13.304;2023-11-21T05:19:00;15.48;;;11.00;;
31450;SDS011;18070;52.474;13.304;2023-11-21T05:21:26;16.65;;;10.30;;
31450;SDS011;18070;52.474;13.304;2023-11-21T05:23:52;15.57;;;9.80;;
31450;SDS011;18070;52.474;13.304;2023-11-21T05:26:18;15.02;;;10.52;;
31450;SDS011;18070;52.474;13.304;2023-11-21T05:28:44;15.07;;;9.82;;
31450;SDS011;18070;52.474;13.304;2023-11-21T05:31:09;16.00;;;10.88;;
31450;SDS011;18070;52.474;13.304;2023-11-21T05:33:36;18.17;;;11.77;;
31450;SDS011;18070;52.474;13.304;2023-11-21T05:36:01;14.20;;;10.93;;
31450;SDS011;18070;52.474;13.304;2023-11-21T05:38:27;16.90;;;11.18;;
31450;SDS011;18070;52.474;13.304;2023-11-21T05:40:53;15.98;;;10.73;;
31450;SDS011;18070;52.474;13.304;2023-11-21T05:43:19;18.92;;;10.23;;
31450;SDS011;18070;52.474;13.304;2023-11-21T05:45:44;13.30;;;9.70;;
31450;SDS011;18070;52.474;13.304;2023-11-21T05:48:10;16.23;;;11.48;;
31450;SDS011;18070;52.474;13.304;2023-11-21T05:50:36;17.70;;;11.63;;
31450;SDS011;18070;52.474;13.304;2023-11-21T05:53:03;17.45;;;11.05;;
31450;SDS011;18070;52.474;13.304;2023-11-21T05:55:30;18.70;;;11.75;;
31450;SDS011;18070;52.474;13.304;2023-11-21T05:57:56;18.08;;;11.48;;
31450;SDS011;18070;52.474;13.304;2023-11-21T06:00:21;17.08;;;11.50;;
31450;SDS011;18070;52.474;13.304;2023-11-21T06:02:51;15.80;;;11.15;;
31450;SDS011;18070;52.474;13.304;2023-11-21T06:05:23;16.13;;;11.43;;
31450;SDS011;18070;52.474;13.304;2023-11-21T06:07:53;21.52;;;10.98;;
31450;SDS011;18070;52.474;13.304;2023-11-21T06:10:22;16.13;;;10.88;;
31450;SDS011;18070;52.474;13.304;2023-11-21T06:12:48;14.90;;;10.52;;
31450;SDS011;18070;52.474;13.304;2023-11-21T06:15:14;18.20;;;10.82;;
31450;SDS011;18070;52.474;13.304;2023-11-21T06:17:41;16.95;;;10.80;;
31450;SDS011;18070;52.474;13.304;2023-11-21T06:20:08;14.73;;;9.77;;
31450;SDS011;18070;52.474;13.304;2023-11-21T06:22:36;15.45;;;9.45;;
31450;SDS011;18070;52.474;13.304;2023-11-21T06:25:02;11.90;;;8.15;;
31450;SDS011;18070;52.474;13.304;2023-11-21T06:27:40;14.13;;;9.30;;
31450;SDS011;18070;52.474;13.304;2023-11-21T06:30:07;13.45;;;8.63;;
31450;SDS011;18070;52.474;13.304;2023-11-21T06:32:34;14.55;;;9.10;;
31450;SDS011;18070;52.474;13.304;2023-11-21T06:35:01;17.08;;;9.05;;
31450;SDS011;18070;52.474;13.304;2023-11-21T06:37:29;13.00;;;8.82;;
31450;SDS011;18070;52.474;13.304;2023-11-21T06:39:56;13.32;;;8.88;;
31450;SDS011;18070;52.474;13.304;2023-11-21T06:42:23;12.93;;;7.97;;
31450;SDS011;18070;52.474;13.304;2023-11-21T06:44:49;12.15;;;8.38;;
31450;SDS011;18070;52.474;13.304;2023-11-21T06:47:17;13.00;;;7.82;;
31450;SDS011;18070;52.474;13.304;2023-11-21T06:49:43;11.95;;;7.53;;
31450;SDS011;18070;52.474;13.304;2023-11-21T06:52:08;15.38;;;7.63;;
31450;SDS011;18070;52.474;13.304;2023-11-21T06:54:34;12.48;;;7.57;;
31450;SDS011;18070;52.474;13.304;2023-11-21T06:57:03;10.82;;;7.63;;
31450;SDS011;18070;52.474;13.304;2023-11-21T06:59:29;11.15;;;7.20;;
31450;SDS011;18070;52.474;13.304;2023-11-21T07:01:54;13.68;;;8.00;;
31450;SDS011;18070;52.474;13.304;2023-11-21T07:04:20;13.57;;;7.25;;
31450;SDS011;18070;52.474;13.304;2023-11-21T07:06:45;11.82;;;7.28;;
31450;SDS011;18070;52.474;13.304;2023-11-21T07:09:11;12.23;;;8.50;;
31450;SDS011;18070;52.474;13.304;2023-11-21T07:11:37;13.80;;;7.65;;
31450;SDS011;18070;52.474;13.304;2023-11-21T07:14:03;10.82;;;7.40;;
31450;SDS011;18070;52.474;13.304;2023-11-21T07:16:35;11.90;;;7.82;;
31450;SDS011;18070;52.474;13.304;2023-11-21T07:19:04;12.93;;;8.35;;
31450;SDS011;18070;52.474;13.304;2023-11-21T07:21:33;11.32;;;7.57;;
31450;SDS011;18070;52.474;13.304;2023-11-21T07:24:01;12.60;;;7.80;;
31450;SDS011;18070;52.474;13.304;2023-11-21T07:26:27;12.85;;;8.10;;
31450;SDS011;18070;52.474;13.304;2023-11-21T07:28:53;11.20;;;8.13;;
31450;SDS011;18070;52.474;13.304;2023-11-21T07:31:19;11.10;;;7.50;;
31450;SDS011;18070;52.474;13.304;2023-11-21T07:33:47;11.65;;;7.93;;
31450;SDS011;18070;52.474;13.304;2023-11-21T07:36:13;10.20;;;7.05;;
31450;SDS011;18070;52.474;13.304;2023-11-21T07:38:48;11.15;;;7.75;;
31450;SDS011;18070;52.474;13.304;2023-11-21T07:41:14;12.80;;;7.88;;
31450;SDS011;18070;52.474;13.304;2023-11-21T07:43:41;9.93;;;7.18;;
31450;SDS011;18070;52.474;13.304;2023-11-21T07:46:07;9.27;;;6.82;;
31450;SDS011;18070;52.474;13.304;2023-11-21T07:48:33;10.70;;;7.25;;
31450;SDS011;18070;52.474;13.304;2023-11-21T07:50:59;10.88;;;7.63;;
31450;SDS011;18070;52.474;13.304;2023-11-21T07:53:26;12.05;;;7.80;;
31450;SDS011;18070;52.474;13.304;2023-11-21T07:55:54;12.73;;;7.60;;
31450;SDS011;18070;52.474;13.304;2023-11-21T07:58:19;11.07;;;6.88;;
31450;SDS011;18070;52.474;13.304;2023-11-21T08:00:45;9.07;;;6.70;;
31450;SDS011;18070;52.474;13.304;2023-11-21T08:03:13;11.93;;;7.03;;
31450;SDS011;18070;52.474;13.304;2023-11-21T08:05:39;10.65;;;6.57;;
31450;SDS011;18070;52.474;13.304;2023-11-21T08:08:04;10.02;;;6.90;;
31450;SDS011;18070;52.474;13.304;2023-11-21T08:10:30;10.32;;;6.88;;
31450;SDS011;18070;52.474;13.304;2023-11-21T08:12:56;10.38;;;6.63;;
31450;SDS011;18070;52.474;13.304;2023-11-21T08:15:21;10.45;;;7.55;;
31450;SDS011;18070;52.474;13.304;2023-11-21T08:17:47;19.10;;;6.57;;
31450;SDS011;18070;52.474;13.304;2023-11-21T08:20:13;9.32;;;7.35;;
31450;SDS011;18070;52.474;13.304;2023-11-21T08:22:41;11.77;;;6.97;;
31450;SDS011;18070;52.474;13.304;2023-11-21T08:25:07;9.18;;;6.07;;
31450;SDS011;18070;52.474;13.304;2023-11-21T08:27:33;9.68;;;7.00;;
31450;SDS011;18070;52.474;13.304;2023-11-21T08:29:59;13.02;;;7.75;;
31450;SDS011;18070;52.474;13.304;2023-11-21T08:32:25;8.48;;;6.50;;
31450;SDS011;18070;52.474;13.304;2023-11-21T08:34:51;11.05;;;7.47;;
31450;SDS011;18070;52.474;13.304;2023-11-21T08:37:17;9.95;;;6.82;;
31450;SDS011;18070;52.474;13.304;2023-11-21T08:39:43;11.05;;;7.65;;
31450;SDS011;18070;52.474;13.304;2023-11-21T08:42:09;9.02;;;7.07;;
31450;SDS011;18070;52.474;13.304;2023-11-21T08:44:35;10.05;;;7.40;;
31450;SDS011;18070;52.474;13.304;2023-11-21T08:47:01;9.50;;;6.97;;
31450;SDS011;18070;52.474;13.304;2023-11-21T08:49:27;11.32;;;6.72;;
31450;SDS011;18070;52.474;13.304;2023-11-21T08:51:54;8.98;;;6.65;;
31450;SDS011;18070;52.474;13.304;2023-11-21T08:54:24;15.82;;;7.07;;
31450;SDS011;18070;52.474;13.304;2023-11-21T08:56:51;9.48;;;6.25;;
31450;SDS011;18070;52.474;13.304;2023-11-21T08:59:17;10.93;;;6.40;;
31450;SDS011;18070;52.474;13.304;2023-11-21T09:01:45;12.60;;;6.95;;
31450;SDS011;18070;52.474;13.304;2023-11-21T09:04:11;6.88;;;5.63;;
31450;SDS011;18070;52.474;13.304;2023-11-21T09:06:37;10.32;;;6.80;;
31450;SDS011;18070;52.474;13.304;2023-11-21T09:09:04;12.45;;;6.80;;
31450;SDS011;18070;52.474;13.304;2023-11-21T09:11:31;9.40;;;6.93;;
31450;SDS011;18070;52.474;13.304;2023-11-21T09:14:01;11.27;;;6.88;;
31450;SDS011;18070;52.474;13.304;2023-11-21T09:16:28;7.55;;;6.00;;
31450;SDS011;18070;52.474;13.304;2023-11-21T09:18:54;8.95;;;6.13;;
31450;SDS011;18070;52.474;13.304;2023-11-21T09:21:20;13.95;;;7.45;;
31450;SDS011;18070;52.474;13.304;2023-11-21T09:23:45;9.35;;;6.00;;
31450;SDS011;18070;52.474;13.304;2023-11-21T09:26:11;7.90;;;6.03;;
31450;SDS011;18070;52.474;13.304;2023-11-21T09:28:37;9.45;;;5.95;;
31450;SDS011;18070;52.474;13.304;2023-11-21T09:31:04;14.10;;;6.40;;
31450;SDS011;18070;52.474;13.304;2023-11-21T09:33:30;10.00;;;6.60;;
31450;SDS011;18070;52.474;13.304;2023-11-21T09:35:56;11.93;;;6.40;;
31450;SDS011;18070;52.474;13.304;2023-11-21T09:38:22;12.77;;;6.25;;
31450;SDS011;18070;52.474;13.304;2023-11-21T09:40:48;8.32;;;6.13;;
31450;SDS011;18070;52.474;13.304;2023-11-21T09:43:18;12.18;;;7.53;;
31450;SDS011;18070;52.474;13.304;2023-11-21T09:45:45;10.93;;;6.63;;
31450;SDS011;18070;52.474;13.304;2023-11-21T09:48:15;17.33;;;7.35;;
31450;SDS011;18070;52.474;13.304;2023-11-21T09:50:42;14.95;;;7.13;;
31450;SDS011;18070;52.474;13.304;2023-11-21T09:53:18;15.05;;;7.13;;
31450;SDS011;18070;52.474;13.304;2023-11-21T09:55:52;16.02;;;7.82;;
31450;SDS011;18070;52.474;13.304;2023-11-21T09:58:18;14.77;;;8.20;;
31450;SDS011;18070;52.474;13.304;2023-11-21T10:00:46;16.67;;;7.38;;
31450;SDS011;18070;52.474;13.304;2023-11-21T10:03:13;18.13;;;7.50;;
31450;SDS011;18070;52.474;13.304;2023-11-21T10:05:40;17.75;;;8.40;;
31450;SDS011;18070;52.474;13.304;2023-11-21T10:08:08;19.92;;;8.18;;
31450;SDS011;18070;52.474;13.304;2023-11-21T10:10:37;23.33;;;8.07;;
31450;SDS011;18070;52.474;13.304;2023-11-21T10:13:11;18.83;;;8.80;;
31450;SDS011;18070;52.474;13.304;2023-11-21T10:15:38;17.88;;;8.77;;
31450;SDS011;18070;52.474;13.304;2023-11-21T10:18:09;23.17;;;9.77;;
31450;SDS011;18070;52.474;13.304;2023-11-21T10:20:35;24.33;;;9.93;;
31450;SDS011;18070;52.474;13.304;2023-11-21T10:23:03;30.83;;;11.27;;
31450;SDS011;18070;52.474;13.304;2023-11-21T10:25:29;22.92;;;10.80;;
31450;SDS011;18070;52.474;13.304;2023-11-21T10:27:59;23.52;;;10.98;;
31450;SDS011;18070;52.474;13.304;2023-11-21T10:30:33;27.58;;;10.75;;
31450;SDS011;18070;52.474;13.304;2023-11-21T10:33:02;21.73;;;9.48;;
31450;SDS011;18070;52.474;13.304;2023-11-21T10:35:47;20.02;;;9.25;;
31450;SDS011;18070;52.474;13.304;2023-11-21T10:38:16;21.77;;;9.63;;
31450;SDS011;18070;52.474;13.304;2023-11-21T10:40:42;18.88;;;9.45;;
31450;SDS011;18070;52.474;13.304;2023-11-21T10:43:11;20.15;;;9.88;;
31450;SDS011;18070;52.474;13.304;2023-11-21T10:45:38;27.30;;;10.55;;
31450;SDS011;18070;52.474;13.304;2023-11-21T10:48:10;20.25;;;10.02;;
31450;SDS011;18070;52.474;13.304;2023-11-21T10:50:40;17.50;;;8.27;;
31450;SDS011;18070;52.474;13.304;2023-11-21T10:53:06;15.82;;;7.80;;
31450;SDS011;18070;52.474;13.304;2023-11-21T10:55:33;14.07;;;8.27;;
31450;SDS011;18070;52.474;13.304;2023-11-21T10:58:00;13.65;;;8.07;;
31450;SDS011;18070;52.474;13.304;2023-11-21T11:00:28;15.93;;;7.97;;
31450;SDS011;18070;52.474;13.304;2023-11-21T11:02:54;14.15;;;7.60;;
31450;SDS011;18070;52.474;13.304;2023-11-21T11:05:21;17.95;;;8.98;;
31450;SDS011;18070;52.474;13.304;2023-11-21T11:07:51;12.55;;;6.97;;
31450;SDS011;18070;52.474;13.304;2023-11-21T11:10:25;14.25;;;7.88;;
31450;SDS011;18070;52.474;13.304;2023-11-21T11:12:52;14.55;;;7.50;;
31450;SDS011;18070;52.474;13.304;2023-11-21T11:15:25;9.38;;;5.65;;
31450;SDS011;18070;52.474;13.304;2023-11-21T11:17:51;11.10;;;6.45;;
31450;SDS011;18070;52.474;13.304;2023-11-21T11:20:22;9.20;;;5.82;;
31450;SDS011;18070;52.474;13.304;2023-11-21T11:23:14;11.63;;;6.10;;
31450;SDS011;18070;52.474;13.304;2023-11-21T11:28:56;11.50;;;5.70;;
31450;SDS011;18070;52.474;13.304;2023-11-21T11:34:47;9.82;;;5.28;;
31450;SDS011;18070;52.474;13.304;2023-11-21T11:37:34;6.60;;;4.40;;
31450;SDS011;18070;52.474;13.304;2023-11-21T11:40:00;7.18;;;5.38;;
31450;SDS011;18070;52.474;13.304;2023-11-21T11:42:26;5.65;;;4.50;;
31450;SDS011;18070;52.474;13.304;2023-11-21T11:44:52;5.00;;;4.45;;
31450;SDS011;18070;52.474;13.304;2023-11-21T11:50:05;5.70;;;4.35;;
31450;SDS011;18070;52.474;13.304;2023-11-21T11:52:43;6.28;;;4.32;;
31450;SDS011;18070;52.474;13.304;2023-11-21T11:55:11;6.07;;;4.30;;
31450;SDS011;18070;52.474;13.304;2023-11-21T11:57:40;7.80;;;5.00;;
31450;SDS011;18070;52.474;13.304;2023-11-21T12:00:20;9.45;;;5.25;;
31450;SDS011;18070;52.474;13.304;2023-11-21T12:02:55;10.45;;;5.95;;
31450;SDS011;18070;52.474;13.304;2023-11-21T12:05:23;7.18;;;6.15;;
31450;SDS011;18070;52.474;13.304;2023-11-21T12:10:20;5.90;;;4.95;;
31450;SDS011;18070;52.474;13.304;2023-11-21T12:12:48;9.73;;;4.95;;
31450;SDS011;18070;52.474;13.304;2023-11-21T12:15:15;5.70;;;4.22;;
31450;SDS011;18070;52.474;13.304;2023-11-21T12:17:42;6.25;;;5.10;;
31450;SDS011;18070;52.474;13.304;2023-11-21T12:20:09;6.18;;;4.60;;
31450;SDS011;18070;52.474;13.304;2023-11-21T12:22:48;9.73;;;5.28;;
31450;SDS011;18070;52.474;13.304;2023-11-21T12:25:19;9.95;;;5.18;;
31450;SDS011;18070;52.474;13.304;2023-11-21T12:27:49;6.47;;;4.93;;
31450;SDS011;18070;52.474;13.304;2023-11-21T12:30:19;8.10;;;5.47;;
31450;SDS011;18070;52.474;13.304;2023-11-21T12:32:53;9.30;;;5.93;;
31450;SDS011;18070;52.474;13.304;2023-11-21T12:35:21;9.57;;;5.50;;
31450;SDS011;18070;52.474;13.304;2023-11-21T12:37:49;7.57;;;5.20;;
31450;SDS011;18070;52.474;13.304;2023-11-21T12:40:16;9.68;;;5.20;;
31450;SDS011;18070;52.474;13.304;2023-11-21T12:42:42;7.35;;;5.15;;
31450;SDS011;18070;52.474;13.304;2023-11-21T12:47:44;6.45;;;5.03;;
31450;SDS011;18070;52.474;13.304;2023-11-21T12:50:10;6.50;;;5.20;;
31450;SDS011;18070;52.474;13.304;2023-11-21T12:52:48;7.10;;;4.88;;
31450;SDS011;18070;52.474;13.304;2023-11-21T12:57:47;7.80;;;4.75;;
31450;SDS011;18070;52.474;13.304;2023-11-21T13:00:16;7.70;;;4.80;;
31450;SDS011;18070;52.474;13.304;2023-11-21T13:02:56;5.88;;;4.68;;
31450;SDS011;18070;52.474;13.304;2023-11-21T13:05:24;7.47;;;4.65;;
31450;SDS011;18070;52.474;13.304;2023-11-21T13:07:54;9.00;;;4.95;;
31450;SDS011;18070;52.474;13.304;2023-11-21T13:10:25;7.75;;;4.53;;
31450;SDS011;18070;52.474;13.304;2023-11-21T13:12:55;6.88;;;4.53;;
31450;SDS011;18070;52.474;13.304;2023-11-21T13:15:25;6.93;;;5.03;;
31450;SDS011;18070;52.474;13.304;2023-11-21T13:17:52;7.55;;;5.43;;
31450;SDS011;18070;52.474;13.304;2023-11-21T13:20:19;9.95;;;5.20;;
31450;SDS011;18070;52.474;13.304;2023-11-21T13:22:49;9.65;;;5.80;;
31450;SDS011;18070;52.474;13.304;2023-11-21T13:25:17;16.88;;;7.28;;
31450;SDS011;18070;52.474;13.304;2023-11-21T13:27:43;10.88;;;6.20;;
31450;SDS011;18070;52.474;13.304;2023-11-21T13:30:11;10.27;;;6.03;;
31450;SDS011;18070;52.474;13.304;2023-11-21T13:32:44;16.75;;;7.30;;
31450;SDS011;18070;52.474;13.304;2023-11-21T13:35:16;10.55;;;7.28;;
31450;SDS011;18070;52.474;13.304;2023-11-21T13:37:56;10.95;;;7.72;;
31450;SDS011;18070;52.474;13.304;2023-11-21T13:40:25;13.65;;;7.75;;
31450;SDS011;18070;52.474;13.304;2023-11-21T13:42:52;13.02;;;7.40;;
31450;SDS011;18070;52.474;13.304;2023-11-21T13:45:24;14.25;;;8.82;;
31450;SDS011;18070;52.474;13.304;2023-11-21T13:47:51;12.90;;;8.05;;
31450;SDS011;18070;52.474;13.304;2023-11-21T13:50:20;15.50;;;9.32;;
31450;SDS011;18070;52.474;13.304;2023-11-21T13:52:49;15.07;;;9.32;;
31450;SDS011;18070;52.474;13.304;2023-11-21T13:55:19;16.25;;;9.45;;
31450;SDS011;18070;52.474;13.304;2023-11-21T13:57:46;17.45;;;9.40;;
31450;SDS011;18070;52.474;13.304;2023-11-21T14:00:17;17.77;;;9.70;;
31450;SDS011;18070;52.474;13.304;2023-11-21T14:03:01;18.27;;;9.35;;
31450;SDS011;18070;52.474;13.304;2023-11-21T14:05:27;18.38;;;10.63;;
31450;SDS011;18070;52.474;13.304;2023-11-21T14:07:57;18.33;;;10.52;;
31450;SDS011;18070;52.474;13.304;2023-11-21T14:10:28;22.77;;;11.07;;
31450;SDS011;18070;52.474;13.304;2023-11-21T14:13:04;26.70;;;12.35;;
31450;SDS011;18070;52.474;13.304;2023-11-21T14:15:31;29.90;;;13.65;;
31450;SDS011;18070;52.474;13.304;2023-11-21T14:17:58;31.10;;;14.30;;
31450;SDS011;18070;52.474;13.304;2023-11-21T14:20:25;36.88;;;16.25;;
31450;SDS011;18070;52.474;13.304;2023-11-21T14:22:50;35.10;;;17.30;;
31450;SDS011;18070;52.474;13.304;2023-11-21T14:25:17;32.70;;;16.58;;
31450;SDS011;18070;52.474;13.304;2023-11-21T14:27:43;36.47;;;17.30;;
31450;SDS011;18070;52.474;13.304;2023-11-21T14:30:08;32.53;;;16.75;;
31450;SDS011;18070;52.474;13.304;2023-11-21T14:32:37;32.58;;;15.43;;
31450;SDS011;18070;52.474;13.304;2023-11-21T14:35:03;31.23;;;16.08;;
31450;SDS011;18070;52.474;13.304;2023-11-21T14:37:30;24.65;;;14.13;;